Time;durP1;ratioP1;P1;durP2;ratioP2;P2;SDS_P1;SDS_P2;PMS_P1;PMS_P2;Temp;Humidity;BMP_temperature;BMP_pressure;BME280_temperature;BME280_humidity;BME280_pressure;Samples;Min_cycle;Max_cycle;Signal;HPM_P1;HPM_P2
2021/11/10 00:00:29;;;;;;;58.30;27.10;;;;;;;1.73;73.11;100754.88;102899;1319;110025;-69
2021/11/10 00:03:12;;;;;;;57.90;30.20;;;;;;;1.65;73.71;100750.92;102947;1319;96686;-70
2021/11/10 00:05:42;;;;;;;65.70;30.50;;;;;;;1.56;73.83;100747.86;102962;1319;108150;-70
2021/11/10 00:08:10;;;;;;;59.20;29.20;;;;;;;1.52;74.05;100740.56;103033;1319;96747;-69
2021/11/10 00:10:39;;;;;;;53.50;27.50;;;;;;;1.47;74.49;100742.87;102904;1320;96646;-70
2021/11/10 00:13:18;;;;;;;65.20;28.00;;;;;;;1.43;74.62;100741.86;103083;1319;109955;-70
2021/11/10 00:15:49;;;;;;;62.70;26.40;;;;;;;1.39;74.90;100736.47;102879;1319;96565;-67
2021/11/10 00:18:20;;;;;;;53.60;25.00;;;;;;;1.36;75.04;100733.52;102927;1319;107508;-69
2021/11/10 00:20:49;;;;;;;49.10;23.70;;;;;;;1.36;75.17;100732.65;102944;1323;97306;-69
2021/11/10 00:23:18;;;;;;;47.40;23.30;;;;;;;1.35;75.60;100727.58;102979;1323;96602;-70
2021/11/10 00:25:46;;;;;;;49.90;24.70;;;;;;;1.30;75.74;100722.89;102931;1323;110119;-70
2021/11/10 00:28:14;;;;;;;50.60;26.60;;;;;;;1.27;76.04;100715.77;102993;1319;96552;-70
2021/11/10 00:30:42;;;;;;;45.60;24.80;;;;;;;1.25;75.79;100708.26;102939;1319;105449;-70
2021/11/10 00:33:12;;;;;;;50.20;26.00;;;;;;;1.23;75.84;100703.73;103345;1319;94310;-70
2021/11/10 00:35:41;;;;;;;44.00;26.10;;;;;;;1.24;75.76;100697.07;103040;1319;96564;-70
2021/11/10 00:38:10;;;;;;;46.70;25.60;;;;;;;1.27;75.94;100695.83;103030;1319;110164;-70
2021/11/10 00:40:39;;;;;;;52.80;26.90;;;;;;;1.29;75.80;100697.03;102979;1319;98094;-70
2021/11/10 00:43:08;;;;;;;48.00;26.80;;;;;;;1.33;75.93;100692.29;102882;1319;108355;-70
2021/11/10 00:45:37;;;;;;;50.10;27.30;;;;;;;1.37;76.06;100690.68;102977;1319;96702;-70
2021/11/10 00:48:06;;;;;;;44.10;25.40;;;;;;;1.40;75.64;100691.71;102876;1319;96571;-70
2021/11/10 00:50:34;;;;;;;41.80;23.20;;;;;;;1.43;75.73;100685.56;102934;1325;110207;-70
2021/11/10 00:53:05;;;;;;;41.10;21.70;;;;;;;1.45;75.96;100685.89;102914;1322;96637;-70
2021/11/10 00:55:36;;;;;;;41.40;22.60;;;;;;;1.45;75.76;100682.05;102897;1319;107904;-71
2021/11/10 00:58:04;;;;;;;39.40;21.90;;;;;;;1.45;75.83;100680.48;102939;1324;96535;-71
2021/11/10 01:00:32;;;;;;;40.40;21.40;;;;;;;1.44;75.60;100681.17;102879;1319;97347;-70
2021/11/10 01:03:02;;;;;;;39.80;21.40;;;;;;;1.44;75.43;100684.50;102895;1320;110235;-70
2021/11/10 01:05:30;;;;;;;35.20;18.70;;;;;;;1.43;75.54;100681.36;102809;1322;96571;-71
2021/11/10 01:08:00;;;;;;;33.40;16.70;;;;;;;1.41;75.44;100676.14;102754;1322;109023;-69
2021/11/10 01:10:28;;;;;;;31.00;17.10;;;;;;;1.41;75.59;100663.03;104597;1319;94561;-70
2021/11/10 01:12:57;;;;;;;30.00;16.00;;;;;;;1.42;75.91;100659.17;103285;1319;96529;-70
2021/11/10 01:15:27;;;;;;;30.20;17.20;;;;;;;1.43;76.21;100645.01;103470;1322;110741;-70
2021/11/10 01:17:55;;;;;;;31.30;16.50;;;;;;;1.45;76.06;100634.14;103009;1323;96565;-70
2021/11/10 01:20:24;;;;;;;27.40;15.10;;;;;;;1.50;76.20;100628.33;102854;1322;107911;-71
2021/11/10 01:22:52;;;;;;;27.00;14.60;;;;;;;1.53;75.96;100626.20;102952;1322;96573;-70
2021/11/10 01:25:20;;;;;;;28.30;14.80;;;;;;;1.58;76.11;100616.18;103028;1320;94252;-70
2021/11/10 01:27:48;;;;;;;26.30;13.40;;;;;;;1.61;76.65;100614.59;102948;1322;110208;-70
2021/11/10 01:30:18;;;;;;;26.70;13.20;;;;;;;1.62;76.65;100609.31;102944;1317;94325;-70
2021/11/10 01:32:48;;;;;;;24.80;12.80;;;;;;;1.65;77.12;100609.27;102978;1320;107911;-71
2021/11/10 01:35:18;;;;;;;28.70;13.20;;;;;;;1.65;77.24;100602.80;102965;1319;94524;-70
2021/11/10 01:37:48;;;;;;;25.20;12.80;;;;;;;1.65;77.09;100600.88;103196;1318;96519;-72
2021/11/10 01:40:21;;;;;;;25.70;13.50;;;;;;;1.66;77.35;100600.35;102950;1319;109185;-71
2021/11/10 01:42:51;;;;;;;28.20;14.30;;;;;;;1.66;76.88;100604.89;103100;1322;96655;-70
2021/11/10 01:45:20;;;;;;;28.60;14.40;;;;;;;1.68;77.21;100602.26;103199;1319;107820;-72
2021/11/10 01:47:49;;;;;;;24.80;12.30;;;;;;;1.69;77.07;100596.29;102926;1322;96646;-71
2021/11/10 01:50:20;;;;;;;26.40;13.40;;;;;;;1.68;77.19;100592.11;103155;1318;94343;-70
2021/11/10 01:52:49;;;;;;;25.20;11.70;;;;;;;1.65;76.91;100592.66;103185;1319;110186;-72
2021/11/10 01:55:20;;;;;;;23.10;10.00;;;;;;;1.65;77.07;100593.89;103174;1322;96575;-70
2021/11/10 01:57:49;;;;;;;22.00;10.60;;;;;;;1.67;77.13;100595.27;103181;1318;107834;-72
2021/11/10 02:00:21;;;;;;;20.60;8.90;;;;;;;1.65;77.03;100593.70;103156;1322;96545;-71
2021/11/10 02:02:51;;;;;;;23.00;10.20;;;;;;;1.64;77.43;100592.34;103176;1322;96620;-71
2021/11/10 02:05:22;;;;;;;22.50;10.10;;;;;;;1.58;77.37;100591.17;102928;1322;110260;-71
2021/11/10 02:07:51;;;;;;;21.40;9.90;;;;;;;1.51;77.49;100585.83;103067;1318;96580;-71
2021/11/10 02:10:24;;;;;;;21.80;9.80;;;;;;;1.44;77.69;100580.48;102987;1326;107925;-71
2021/11/10 02:12:58;;;;;;;21.30;10.30;;;;;;;1.37;77.93;100573.92;102929;1318;96612;-71
2021/11/10 02:15:27;;;;;;;22.50;10.60;;;;;;;1.29;77.61;100564.05;103021;1319;95308;-72
2021/11/10 02:18:01;;;;;;;21.60;9.60;;;;;;;1.20;77.98;100559.58;103147;1320;110221;-71
2021/11/10 02:20:34;;;;;;;22.30;11.20;;;;;;;1.14;78.11;100561.58;103145;1326;96536;-71
2021/11/10 02:23:06;;;;;;;20.90;9.30;;;;;;;1.08;77.97;100561.80;103155;1319;108067;-71
2021/11/10 02:25:35;;;;;;;21.90;10.60;;;;;;;1.02;77.97;100560.11;103182;1319;96525;-71
2021/11/10 02:28:05;;;;;;;21.30;10.50;;;;;;;0.98;77.75;100557.70;103123;1319;94248;-72
2021/11/10 02:30:33;;;;;;;23.20;10.10;;;;;;;0.96;77.75;100558.77;103041;1322;110357;-73
2021/11/10 02:33:04;;;;;;;23.00;10.40;;;;;;;0.93;77.47;100556.17;103023;1319;94668;-73
2021/11/10 02:35:33;;;;;;;24.00;10.80;;;;;;;0.90;77.52;100560.21;102977;1319;107779;-72
2021/11/10 02:38:05;;;;;;;23.40;11.30;;;;;;;0.87;77.34;100563.73;103022;1318;96558;-72
2021/11/10 02:40:35;;;;;;;23.10;10.00;;;;;;;0.85;77.43;100564.79;103090;1318;96431;-72
2021/11/10 02:43:05;;;;;;;23.10;11.60;;;;;;;0.83;77.28;100559.73;102945;1320;293299;-72
2021/11/10 02:45:33;;;;;;;26.10;12.10;;;;;;;0.80;77.25;100561.19;103131;1319;96420;-72
2021/11/10 02:48:01;;;;;;;24.00;11.40;;;;;;;0.76;77.21;100560.17;102904;1325;108599;-72
2021/11/10 02:50:32;;;;;;;24.10;11.40;;;;;;;0.74;77.34;100566.29;103102;1325;96552;-70
2021/11/10 02:53:00;;;;;;;23.40;11.00;;;;;;;0.71;77.26;100575.40;103134;1319;96546;-71
2021/11/10 02:55:29;;;;;;;23.60;11.20;;;;;;;0.69;77.27;100581.52;103111;1320;110148;-70
2021/11/10 02:57:59;;;;;;;25.70;11.90;;;;;;;0.67;77.20;100588.52;102968;1320;95821;-70
2021/11/10 03:00:29;;;;;;;23.90;12.20;;;;;;;0.67;77.23;100590.61;102993;1317;107923;-70
2021/11/10 03:02:58;;;;;;;26.10;11.60;;;;;;;0.64;77.26;100589.41;103004;1319;96626;-70
2021/11/10 03:05:29;;;;;;;22.30;11.10;;;;;;;0.61;77.34;100582.63;103124;1322;96661;-70
2021/11/10 03:07:57;;;;;;;27.20;12.20;;;;;;;0.56;77.39;100586.34;103016;1319;108937;-70
2021/11/10 03:10:25;;;;;;;24.30;12.60;;;;;;;0.53;77.33;100580.95;103039;1319;96544;-71
2021/11/10 03:12:53;;;;;;;25.50;11.60;;;;;;;0.50;77.66;100581.31;103155;1320;108443;-69
2021/11/10 03:15:21;;;;;;;24.00;10.60;;;;;;;0.46;77.65;100580.64;103093;1317;96635;-70
2021/11/10 03:17:49;;;;;;;22.20;10.70;;;;;;;0.43;77.56;100584.50;103217;1317;96551;-68
2021/11/10 03:20:18;;;;;;;23.40;11.30;;;;;;;0.42;77.46;100580.31;103092;1317;110564;-69
2021/11/10 03:22:47;;;;;;;23.10;11.00;;;;;;;0.43;77.32;100582.74;102914;1319;96643;-70
2021/11/10 03:25:15;;;;;;;21.60;10.40;;;;;;;0.45;77.30;100577.50;103133;1320;108509;-70
2021/11/10 03:27:43;;;;;;;24.50;11.10;;;;;;;0.46;77.19;100574.88;103129;1322;96628;-71
2021/11/10 03:30:12;;;;;;;22.30;10.20;;;;;;;0.48;77.19;100571.73;103174;1319;95705;-70
2021/11/10 03:32:43;;;;;;;23.50;10.80;;;;;;;0.47;77.29;100570.67;103101;1317;110220;-70
2021/11/10 03:35:12;;;;;;;24.50;10.70;;;;;;;0.46;77.39;100574.69;103107;1322;96558;-70
2021/11/10 03:37:41;;;;;;;25.50;12.70;;;;;;;0.43;77.35;100571.59;103021;1317;108908;-70
2021/11/10 03:40:12;;;;;;;24.90;12.70;;;;;;;0.46;77.24;100570.86;103103;1317;97806;-70
2021/11/10 03:42:41;;;;;;;26.40;12.60;;;;;;;0.46;77.19;100571.21;103175;1320;96607;-71
2021/11/10 03:45:11;;;;;;;24.10;11.10;;;;;;;0.45;77.31;100572.96;103117;1322;110036;-70
2021/11/10 03:47:38;;;;;;;25.70;11.60;;;;;;;0.47;77.35;100576.44;103142;1317;94966;-71
2021/11/10 03:50:09;;;;;;;24.30;10.80;;;;;;;0.46;77.54;100575.75;103156;1317;106940;-70
2021/11/10 03:52:37;;;;;;;23.10;11.80;;;;;;;0.44;77.51;100574.02;103113;1322;95623;-70
2021/11/10 03:55:07;;;;;;;21.20;10.10;;;;;;;0.47;77.66;100572.08;103028;1322;96581;-69
2021/11/10 03:57:34;;;;;;;22.60;10.50;;;;;;;0.49;77.69;100565.42;103112;1317;110226;-72
2021/11/10 04:00:04;;;;;;;22.60;10.70;;;;;;;0.48;77.69;100568.40;103138;1322;97017;-72
2021/11/10 04:02:32;;;;;;;22.10;9.60;;;;;;;0.50;77.65;100569.79;102944;1324;107876;-72
2021/11/10 04:05:03;;;;;;;20.80;9.20;;;;;;;0.54;77.66;100570.11;103034;1322;96346;-71
2021/11/10 04:07:31;;;;;;;21.80;10.60;;;;;;;0.64;77.64;100573.17;103089;1319;96650;-71
2021/11/10 04:09:58;;;;;;;22.40;9.80;;;;;;;0.75;77.66;100574.16;102906;1319;111199;-70
2021/11/10 04:12:26;;;;;;;20.20;9.60;;;;;;;0.83;77.65;100576.34;103130;1325;96498;-70
2021/11/10 04:14:54;;;;;;;20.30;9.10;;;;;;;0.92;77.81;100576.62;103092;1325;107768;-71
2021/11/10 04:17:22;;;;;;;21.40;9.50;;;;;;;1.00;77.86;100579.16;103043;1323;96703;-71
2021/11/10 04:19:50;;;;;;;19.70;8.80;;;;;;;1.06;77.76;100571.78;103061;1319;96791;-71
2021/11/10 04:22:20;;;;;;;20.90;8.80;;;;;;;1.14;77.92;100562.10;102942;1318;110375;-71
2021/11/10 04:24:51;;;;;;;20.60;9.60;;;;;;;1.18;77.82;100569.05;103200;1324;94276;-71
2021/11/10 04:27:25;;;;;;;19.30;9.20;;;;;;;1.22;78.11;100566.21;103117;1319;107981;-71
2021/11/10 04:29:53;;;;;;;23.20;10.00;;;;;;;1.27;77.96;100571.73;103158;1318;96630;-74
2021/11/10 04:32:22;;;;;;;24.40;11.30;;;;;;;1.31;78.02;100568.55;102947;1325;96603;-72
2021/11/10 04:34:51;;;;;;;22.70;10.80;;;;;;;1.36;77.96;100568.17;103138;1319;110162;-72
2021/11/10 04:37:20;;;;;;;23.10;11.40;;;;;;;1.39;78.01;100566.92;103043;1319;94244;-71
2021/11/10 04:39:48;;;;;;;25.10;11.60;;;;;;;1.43;78.22;100563.36;103129;1322;107854;-72
2021/11/10 04:42:17;;;;;;;24.80;11.50;;;;;;;1.46;78.19;100557.38;103137;1317;94271;-71
2021/11/10 04:44:49;;;;;;;25.40;12.50;;;;;;;1.50;78.02;100553.50;103114;1319;94266;-71
2021/11/10 04:47:20;;;;;;;26.80;12.70;;;;;;;1.56;78.19;100553.44;103123;1316;110063;-71
2021/11/10 04:49:47;;;;;;;24.40;11.30;;;;;;;1.63;78.09;100550.37;103116;1320;96542;-72
2021/11/10 04:52:17;;;;;;;23.40;11.70;;;;;;;1.70;78.07;100547.84;103005;1319;108752;-71
2021/11/10 04:54:45;;;;;;;26.20;11.70;;;;;;;1.76;77.99;100545.31;103229;1316;95126;-71
2021/11/10 04:57:13;;;;;;;24.20;11.80;;;;;;;1.81;78.06;100544.92;103058;1317;96519;-71
2021/11/10 04:59:40;;;;;;;24.20;10.90;;;;;;;1.85;78.12;100544.31;103033;1317;110181;-70
2021/11/10 05:04:42;;;;;;;23.40;11.00;;;;;;;1.95;78.48;100542.11;102989;1324;107890;-70
2021/11/10 05:07:13;;;;;;;23.50;10.60;;;;;;;1.94;78.20;100534.77;103051;1318;97160;-70
2021/11/10 05:09:41;;;;;;;22.20;10.50;;;;;;;1.88;78.68;100532.73;103076;1317;96631;-70
2021/11/10 05:12:09;;;;;;;23.30;11.00;;;;;;;1.85;78.56;100537.15;103049;1320;110195;-71
2021/11/10 05:14:43;;;;;;;25.50;11.00;;;;;;;1.85;78.68;100533.31;103067;1319;94275;-70
2021/11/10 05:17:13;;;;;;;25.70;11.40;;;;;;;1.83;78.18;100540.69;103065;1322;107874;-70
2021/11/10 05:19:42;;;;;;;23.90;11.00;;;;;;;1.84;78.58;100543.81;103065;1317;96551;-69
2021/11/10 05:22:30;;;;;;;24.30;10.50;;;;;;;1.89;78.48;100542.87;103104;1320;96719;-71
2021/11/10 05:24:57;;;;;;;24.40;11.40;;;;;;;1.94;78.55;100543.33;103029;1317;109936;-71
2021/11/10 05:27:28;;;;;;;23.30;10.70;;;;;;;2.00;78.26;100537.84;103088;1317;96668;-71
2021/11/10 05:29:56;;;;;;;24.20;11.50;;;;;;;2.07;78.10;100537.20;102940;1318;108067;-71
2021/11/10 05:32:25;;;;;;;22.20;10.40;;;;;;;2.14;78.17;100539.21;103046;1320;97252;-72
2021/11/10 05:34:58;;;;;;;24.10;11.40;;;;;;;2.21;78.56;100540.16;103131;1317;96628;-72
2021/11/10 05:37:29;;;;;;;;;;;;;;;2.28;78.37;100543.21;103057;1317;109198;-71
2021/11/10 05:39:59;;;;;;;27.00;10.40;;;;;;;2.30;78.55;100547.04;103158;1322;96622;-71
2021/11/10 05:42:28;;;;;;;25.20;11.20;;;;;;;2.33;78.51;100549.09;103053;1320;109201;-72
2021/11/10 05:44:56;;;;;;;23.50;12.10;;;;;;;2.34;78.57;100547.14;103037;1319;94684;-71
2021/11/10 05:47:25;;;;;;;27.10;14.00;;;;;;;2.31;78.31;100551.23;103093;1317;96575;-71
2021/11/10 05:49:53;;;;;;;28.80;15.40;;;;;;;2.21;78.60;100553.81;102978;1316;109716;-70
2021/11/10 05:52:21;;;;;;;27.00;14.20;;;;;;;2.16;78.40;100558.27;103043;1320;96679;-71
2021/11/10 05:54:49;;;;;;;29.60;14.40;;;;;;;2.16;78.76;100565.79;102998;1319;107729;-71
2021/11/10 05:57:17;;;;;;;30.10;15.30;;;;;;;2.17;78.39;100562.46;103153;1317;96760;-72
2021/11/10 05:59:49;;;;;;;28.00;14.70;;;;;;;2.19;78.44;100558.40;103087;1319;95097;-71
2021/11/10 06:02:20;;;;;;;28.70;15.60;;;;;;;2.17;78.46;100557.02;102974;1319;108475;-71
2021/11/10 06:04:49;;;;;;;31.40;16.30;;;;;;;2.11;78.77;100553.77;103097;1317;96525;-70
2021/11/10 06:07:17;;;;;;;29.50;16.70;;;;;;;2.09;78.57;100555.90;102974;1317;108003;-71
2021/11/10 06:09:45;;;;;;;28.80;15.60;;;;;;;2.07;78.87;100551.73;103111;1317;96624;-71
2021/11/10 06:12:12;;;;;;;28.10;14.50;;;;;;;2.07;78.57;100552.25;103134;1317;96566;-71
2021/11/10 06:14:40;;;;;;;28.40;14.80;;;;;;;2.08;78.90;100552.24;103102;1322;110084;-71
2021/11/10 06:17:08;;;;;;;27.10;13.80;;;;;;;2.11;78.53;100548.02;103053;1325;96773;-72
2021/11/10 06:19:36;;;;;;;27.30;15.50;;;;;;;2.15;78.64;100547.09;102967;1324;107583;-71
2021/11/10 06:22:06;;;;;;;28.10;14.00;;;;;;;2.18;78.68;100541.80;102936;1322;96573;-69
2021/11/10 06:24:34;;;;;;;29.20;14.60;;;;;;;2.23;78.52;100545.73;103068;1319;94356;-71
2021/11/10 06:27:03;;;;;;;27.00;13.80;;;;;;;2.28;78.58;100541.10;103000;1320;109676;-71
2021/11/10 06:29:32;;;;;;;30.30;16.30;;;;;;;2.33;78.31;100535.97;102987;1324;96541;-72
2021/11/10 06:32:01;;;;;;;30.50;16.60;;;;;;;2.34;78.66;100541.02;103042;1323;107747;-71
2021/11/10 06:34:31;;;;;;;30.20;15.60;;;;;;;2.36;78.86;100544.52;103104;1317;96497;-71
2021/11/10 06:36:58;;;;;;;28.40;14.70;;;;;;;2.39;78.69;100538.33;103082;1317;96660;-71
2021/11/10 06:39:26;;;;;;;31.10;17.20;;;;;;;2.43;78.62;100537.39;103060;1317;110255;-71
2021/11/10 06:41:55;;;;;;;34.80;20.10;;;;;;;2.47;78.73;100535.05;103128;1321;96357;-71
2021/11/10 06:44:24;;;;;;;32.30;18.30;;;;;;;2.52;78.53;100528.30;103089;1317;107839;-71
2021/11/10 06:46:52;;;;;;;33.40;19.30;;;;;;;2.60;78.89;100532.92;103515;1322;94652;-70
2021/11/10 06:49:20;;;;;;;33.00;19.30;;;;;;;2.66;78.61;100538.08;103167;1320;96528;-71
2021/11/10 06:51:48;;;;;;;37.60;19.90;;;;;;;2.72;78.25;100532.20;103115;1317;110539;-71
2021/11/10 06:54:16;;;;;;;32.60;19.40;;;;;;;2.77;78.44;100534.38;103155;1320;97147;-71
2021/11/10 06:56:44;;;;;;;33.70;19.50;;;;;;;2.84;78.31;100536.02;103121;1317;107929;-72
2021/11/10 06:59:13;;;;;;;31.90;18.60;;;;;;;2.91;78.55;100536.95;103175;1317;96512;-72
2021/11/10 07:01:41;;;;;;;27.50;14.30;;;;;;;2.99;78.38;100536.63;103123;1317;94522;-71
2021/11/10 07:04:10;;;;;;;34.30;17.20;;;;;;;3.08;78.46;100537.00;102898;1324;110146;-71
2021/11/10 07:06:38;;;;;;;28.70;16.80;;;;;;;3.15;78.81;100535.81;103120;1317;96544;-72
2021/11/10 07:09:07;;;;;;;31.00;16.60;;;;;;;3.23;78.66;100533.05;103078;1317;107547;-71
2021/11/10 07:11:37;;;;;;;35.30;17.80;;;;;;;3.31;78.60;100529.90;104243;1317;96541;-71
2021/11/10 07:14:07;;;;;;;35.60;18.50;;;;;;;3.39;78.23;100531.00;102963;1321;96536;-71
2021/11/10 07:16:37;;;;;;;40.80;18.40;;;;;;;3.47;78.32;100528.38;103094;1322;110108;-73
2021/11/10 07:19:04;;;;;;;37.30;18.80;;;;;;;3.55;78.47;100524.02;103120;1320;96617;-72
2021/11/10 07:21:33;;;;;;;34.50;19.20;;;;;;;3.63;78.50;100525.61;102858;1325;107649;-73
2021/11/10 07:24:03;;;;;;;40.90;19.80;;;;;;;3.70;78.44;100519.65;102894;1317;96532;-73
2021/11/10 07:26:33;;;;;;;38.00;19.70;;;;;;;3.78;78.40;100523.02;102874;1319;96591;-72
2021/11/10 07:29:01;;;;;;;35.90;19.10;;;;;;;3.84;78.36;100523.58;103119;1320;109982;-71
2021/11/10 07:31:29;;;;;;;33.10;17.30;;;;;;;3.92;78.33;100521.32;102958;1321;96557;-71
2021/11/10 07:33:59;;;;;;;30.00;15.00;;;;;;;4.01;78.40;100516.02;103099;1320;106878;-73
2021/11/10 07:36:30;;;;;;;33.30;16.10;;;;;;;4.11;78.61;100514.91;103102;1317;96548;-72
2021/11/10 07:39:01;;;;;;;31.70;17.00;;;;;;;4.24;78.65;100521.65;103167;1317;94317;-73
2021/11/10 07:41:34;;;;;;;32.50;16.70;;;;;;;4.33;78.42;100529.33;103071;1317;110131;-72
2021/11/10 07:44:10;;;;;;;30.00;15.90;;;;;;;4.42;78.50;100529.13;102985;1319;96516;-73
2021/11/10 07:46:38;;;;;;;28.30;12.90;;;;;;;4.53;78.52;100524.14;103021;1320;107787;-71
2021/11/10 07:49:06;;;;;;;29.60;14.10;;;;;;;4.67;78.61;100524.14;103114;1321;94401;-71
2021/11/10 07:51:34;;;;;;;24.50;12.30;;;;;;;4.80;78.62;100522.77;102997;1323;96668;-71
2021/11/10 07:54:02;;;;;;;26.10;11.70;;;;;;;4.93;78.79;100522.08;103125;1316;109064;-71
2021/11/10 07:56:30;;;;;;;25.20;12.80;;;;;;;5.05;78.65;100524.06;103005;1323;94559;-70
2021/11/10 07:58:57;;;;;;;25.60;12.30;;;;;;;5.15;78.64;100518.68;102924;1320;107721;-71
2021/11/10 08:01:28;;;;;;;27.00;13.60;;;;;;;5.27;78.67;100520.13;103055;1320;95463;-71
2021/11/10 08:04:03;;;;;;;26.30;12.40;;;;;;;5.37;78.57;100518.27;103098;1317;94286;-71
2021/11/10 08:06:34;;;;;;;24.20;11.30;;;;;;;5.47;78.75;100516.58;103079;1320;110227;-72
2021/11/10 08:09:04;;;;;;;22.00;10.20;;;;;;;5.59;78.64;100519.77;102979;1316;95697;-72
2021/11/10 08:11:32;;;;;;;20.90;9.70;;;;;;;5.70;78.58;100518.58;102834;1321;107907;-72
2021/11/10 08:14:02;;;;;;;22.10;10.80;;;;;;;5.80;78.54;100519.34;102868;1322;96452;-71
2021/11/10 08:16:30;;;;;;;22.20;10.20;;;;;;;5.91;78.44;100516.17;102922;1320;96562;-72
2021/11/10 08:18:58;;;;;;;23.80;10.60;;;;;;;6.00;78.40;100515.39;102889;1317;110360;-70
2021/11/10 08:21:30;;;;;;;21.00;10.20;;;;;;;6.09;78.19;100519.02;103058;1316;94513;-71
2021/11/10 08:23:58;;;;;;;19.00;8.90;;;;;;;6.18;78.09;100515.75;103073;1317;107839;-71
2021/11/10 08:26:26;;;;;;;21.20;9.40;;;;;;;6.30;78.36;100518.92;103252;1323;96766;-70
2021/11/10 08:29:01;;;;;;;19.60;8.90;;;;;;;6.41;78.21;100516.96;103109;1316;95700;-71
2021/11/10 08:31:29;;;;;;;22.00;9.10;;;;;;;6.53;78.39;100515.53;103122;1316;109921;-71
2021/11/10 08:33:57;;;;;;;21.20;9.20;;;;;;;6.66;78.34;100514.39;102969;1322;96631;-71
2021/11/10 08:36:28;;;;;;;18.50;8.80;;;;;;;6.86;78.21;100514.27;103060;1323;107949;-70
2021/11/10 08:38:56;;;;;;;19.10;8.60;;;;;;;7.09;78.14;100510.28;102867;1319;96614;-71
2021/11/10 08:41:25;;;;;;;18.50;8.10;;;;;;;7.39;78.14;100508.54;102940;1323;96515;-72
2021/11/10 08:43:57;;;;;;;17.00;7.90;;;;;;;7.75;78.31;100505.60;102894;1325;110114;-72
2021/11/10 08:46:32;;;;;;;19.40;8.30;;;;;;;8.12;78.09;100499.95;103015;1323;94238;-72
2021/11/10 08:49:00;;;;;;;18.20;7.30;;;;;;;8.51;77.78;100496.64;103069;1323;107875;-72
2021/11/10 08:51:28;;;;;;;17.90;7.70;;;;;;;9.00;77.39;100494.99;102984;1324;97706;-72
2021/11/10 08:53:59;;;;;;;16.60;7.00;;;;;;;9.30;77.16;100496.13;103072;1319;96651;-72
2021/11/10 08:56:27;;;;;;;16.80;7.20;;;;;;;9.56;77.15;100495.00;102950;1319;110161;-72
2021/11/10 08:59:00;;;;;;;17.50;7.30;;;;;;;9.89;77.37;100493.48;103077;1322;96638;-71
2021/11/10 09:01:32;;;;;;;15.90;7.00;;;;;;;10.40;77.07;100495.65;103028;1322;107512;-71
2021/11/10 09:04:00;;;;;;;16.60;7.10;;;;;;;10.94;76.14;100495.86;103088;1322;96548;-70
2021/11/10 09:06:28;;;;;;;15.30;6.20;;;;;;;11.52;76.20;100489.80;103059;1321;96537;-71
2021/11/10 09:08:56;;;;;;;13.70;6.30;;;;;;;12.11;75.74;100483.95;103036;1322;110631;-72
2021/11/10 09:11:24;;;;;;;15.20;6.30;;;;;;;12.50;74.88;100479.94;102918;1316;94610;-73
2021/11/10 09:13:52;;;;;;;13.80;6.10;;;;;;;12.74;74.79;100481.02;102932;1321;107486;-74
2021/11/10 09:16:20;;;;;;;14.70;6.50;;;;;;;12.97;74.97;100476.65;102933;1324;94608;-73
2021/11/10 09:18:48;;;;;;;11.00;5.40;;;;;;;13.04;74.80;100474.63;103115;1316;94333;-72
2021/11/10 09:21:15;;;;;;;11.60;5.80;;;;;;;12.96;73.50;100471.73;103106;1316;110000;-70
2021/11/10 09:23:48;;;;;;;13.10;5.60;;;;;;;12.75;73.55;100467.98;103147;1317;94403;-70
2021/11/10 09:26:19;;;;;;;11.80;5.70;;;;;;;12.72;73.54;100468.88;103072;1317;107777;-71
2021/11/10 09:28:48;;;;;;;15.40;6.50;;;;;;;12.71;73.58;100464.52;103056;1317;97243;-71
2021/11/10 09:31:20;;;;;;;13.40;6.30;;;;;;;12.79;74.22;100461.92;103063;1317;96526;-72
2021/11/10 09:33:49;;;;;;;13.60;5.90;;;;;;;12.89;74.03;100459.15;103077;1321;110298;-72
2021/11/10 09:36:20;;;;;;;12.40;5.60;;;;;;;12.94;73.09;100451.55;103056;1319;95306;-71
2021/11/10 09:38:56;;;;;;;13.90;6.20;;;;;;;12.86;71.85;100451.15;102900;1323;108147;-72
2021/11/10 09:41:27;;;;;;;15.90;6.50;;;;;;;12.67;71.13;100452.10;103141;1317;96587;-71
2021/11/10 09:43:59;;;;;;;13.30;6.20;;;;;;;12.59;71.10;100456.85;103162;1317;96568;-71
2021/11/10 09:46:28;;;;;;;14.10;6.00;;;;;;;12.59;71.75;100457.54;103170;1322;109997;-71
2021/11/10 09:48:58;;;;;;;15.50;6.30;;;;;;;12.66;71.18;100457.11;104255;1316;94823;-70
2021/11/10 09:51:29;;;;;;;13.30;5.70;;;;;;;12.64;70.59;100454.55;102954;1319;108592;-70
2021/11/10 09:53:58;;;;;;;16.00;6.70;;;;;;;12.56;68.95;100453.99;103013;1321;96591;-71
2021/11/10 09:56:33;;;;;;;16.10;6.50;;;;;;;12.44;68.48;100450.42;103099;1317;94265;-72
2021/11/10 09:59:06;;;;;;;15.40;6.60;;;;;;;12.31;67.76;100443.30;103052;1318;110136;-71
2021/11/10 10:01:39;;;;;;;15.60;6.60;;;;;;;12.27;67.81;100444.48;103157;1322;96610;-72
2021/11/10 10:04:10;;;;;;;14.80;6.00;;;;;;;12.30;68.17;100445.52;102809;1316;106849;-71
2021/11/10 10:06:39;;;;;;;14.30;5.90;;;;;;;12.37;68.15;100441.06;102959;1319;96867;-72
2021/11/10 10:09:07;;;;;;;14.00;5.70;;;;;;;12.51;68.66;100435.42;102944;1321;94350;-71
2021/11/10 10:11:36;;;;;;;12.90;5.90;;;;;;;12.61;67.29;100427.20;102978;1317;110589;-71
2021/11/10 10:14:04;;;;;;;12.00;5.10;;;;;;;12.60;66.29;100424.05;102995;1317;94206;-71
2021/11/10 10:16:34;;;;;;;14.20;5.80;;;;;;;12.49;65.43;100418.77;102976;1320;107820;-72
2021/11/10 10:19:08;;;;;;;11.90;5.10;;;;;;;12.47;66.27;100417.48;103150;1316;96651;-72
2021/11/10 10:21:44;;;;;;;12.00;5.80;;;;;;;12.60;65.62;100419.61;103096;1319;94592;-73
2021/11/10 10:24:16;;;;;;;14.20;5.30;;;;;;;12.65;66.14;100411.45;103031;1325;110139;-72
2021/11/10 10:26:44;;;;;;;11.00;5.40;;;;;;;12.75;65.75;100411.94;103026;1317;97200;-71
2021/11/10 10:29:13;;;;;;;12.40;5.10;;;;;;;12.74;64.25;100404.33;102980;1317;107866;-74
2021/11/10 10:31:46;;;;;;;11.90;5.50;;;;;;;12.68;63.78;100405.78;102958;1317;96555;-73
2021/11/10 10:34:18;;;;;;;12.20;5.50;;;;;;;12.63;64.11;100402.48;103134;1316;96523;-71
2021/11/10 10:36:46;;;;;;;12.60;5.10;;;;;;;12.70;63.60;100407.94;103077;1319;110318;-71
2021/11/10 10:39:19;;;;;;;13.60;5.70;;;;;;;12.64;62.82;100402.41;103161;1322;96542;-71
2021/11/10 10:41:54;;;;;;;12.50;5.30;;;;;;;12.62;63.09;100404.19;103094;1319;107833;-72
2021/11/10 10:44:28;;;;;;;12.10;5.30;;;;;;;12.67;62.90;100402.29;102961;1323;144536;-71
2021/11/10 10:47:03;;;;;;;12.50;5.40;;;;;;;12.66;61.71;100402.54;103021;1318;96777;-73
2021/11/10 10:49:46;;;;;;;14.00;5.70;;;;;;;12.54;60.94;100392.39;103031;1319;110201;-72
2021/11/10 10:52:20;;;;;;;;;;;;;;;12.57;61.69;100390.41;103043;1320;96549;-71
2021/11/10 10:54:51;;;;;;;10.70;4.80;;;;;;;12.63;61.32;100387.52;102996;1317;107906;-73
2021/11/10 10:57:21;;;;;;;12.40;5.00;;;;;;;12.56;59.79;100384.04;103037;1318;95037;-73
2021/11/10 11:00:19;;;;;;;13.60;5.60;;;;;;;12.38;59.45;100378.00;103087;1325;96503;-72
2021/11/10 11:02:47;;;;;;;12.70;5.00;;;;;;;12.29;59.83;100377.27;102971;1324;110081;-73
2021/11/10 11:05:39;;;;;;;14.40;5.20;;;;;;;12.32;59.61;100370.55;103069;1320;96555;-72
2021/11/10 11:08:37;;;;;;;11.50;5.00;;;;;;;12.29;59.24;100373.39;103046;1319;107591;-71
2021/11/10 11:11:25;;;;;;;12.60;5.20;;;;;;;12.29;58.70;100370.50;103013;1318;96566;-71
2021/11/10 11:13:59;;;;;;;14.40;5.90;;;;;;;12.20;58.27;100362.52;103096;1316;94278;-71
2021/11/10 11:16:39;;;;;;;13.70;5.60;;;;;;;12.19;58.49;100356.19;103050;1320;108226;-74
2021/11/10 11:19:18;;;;;;;14.00;6.10;;;;;;;12.21;58.21;100349.65;103077;1317;97737;-72
2021/11/10 11:21:59;;;;;;;15.20;5.80;;;;;;;12.18;57.96;100350.55;103037;1319;107723;-74